Terminal Aerodrome Forecast
Issued by NWS

Home | Current Version | Previous Version | Text Only | Print | Product List | Glossary On
Versions: 1 2 3 4 5 6 7 8 9 10 11 12
000
FTUS43 KJKL 051725
TAFSME
TAF
KSME 051725Z 0518/0618 26005KT P6SM SCT060
     FM060000 VRB03KT P6SM FEW250
     FM061500 VRB04KT P6SM SCT060=

USA.gov is the U.S. government's official web portal to all federal, state and local government web resources and services.